Time;durP1;ratioP1;P1;durP2;ratioP2;P2;SDS_P1;SDS_P2;PMS_P1;PMS_P2;Temp;Humidity;BMP_temperature;BMP_pressure;BME280_temperature;BME280_humidity;BME280_pressure;Samples;Min_cycle;Max_cycle;Signal;HPM_P1;HPM_P2
2024/03/24 00:01:55;;;;;;;0.60;0.60;;;7.10;97.00;;;;;;10495237;28;20228;-75
2024/03/24 00:06:58;;;;;;;0.60;0.60;;;7.20;97.20;;;;;;10494515;28;20232;-75
2024/03/24 00:12:01;;;;;;;0.50;0.50;;;7.10;97.60;;;;;;10494922;28;20554;-75
2024/03/24 00:17:04;;;;;;;0.70;0.70;;;7.00;98.20;;;;;;10494205;28;20216;-75
2024/03/24 00:22:06;;;;;;;1.00;1.00;;;7.00;98.50;;;;;;10493342;28;20216;-75
2024/03/24 00:27:10;;;;;;;1.33;1.33;;;7.00;99.00;;;;;;10493705;28;20220;-75
2024/03/24 00:32:12;;;;;;;0.90;0.90;;;6.90;99.30;;;;;;10486232;28;20197;-75
2024/03/24 00:37:15;;;;;;;0.70;0.70;;;6.80;99.20;;;;;;10493715;28;20216;-75
2024/03/24 00:42:18;;;;;;;1.10;1.10;;;6.70;99.10;;;;;;10493359;28;20212;-75
2024/03/24 00:47:21;;;;;;;0.90;0.90;;;6.60;99.60;;;;;;10491835;28;20567;-75
2024/03/24 00:52:23;;;;;;;0.70;0.70;;;6.60;99.50;;;;;;10493276;28;20681;-75
2024/03/24 00:57:27;;;;;;;0.60;0.60;;;6.50;99.60;;;;;;10491577;28;20216;-75
2024/03/24 01:02:30;;;;;;;0.60;0.60;;;6.50;99.60;;;;;;10493094;28;20220;-74
2024/03/24 01:07:32;;;;;;;0.50;0.50;;;6.50;99.60;;;;;;10490867;28;20232;-76
2024/03/24 01:12:36;;;;;;;0.50;0.50;;;6.50;99.50;;;;;;10492767;28;20197;-76
2024/03/24 01:17:38;;;;;;;0.60;0.60;;;6.60;99.60;;;;;;10491107;28;20216;-75
2024/03/24 01:22:42;;;;;;;0.50;0.50;;;6.70;99.80;;;;;;10491999;28;20215;-75
2024/03/24 01:27:45;;;;;;;0.47;0.47;;;6.70;99.70;;;;;;10490649;28;20228;-76
2024/03/24 01:32:48;;;;;;;0.50;0.50;;;6.90;99.90;;;;;;10492059;28;20249;-75
2024/03/24 01:37:50;;;;;;;0.50;0.50;;;6.90;99.50;;;;;;10490913;28;20231;-75
2024/03/24 01:42:53;;;;;;;0.50;0.50;;;7.00;99.90;;;;;;10491439;28;20197;-75
2024/03/24 01:47:56;;;;;;;0.53;0.53;;;7.00;99.80;;;;;;10490814;28;20628;-75
2024/03/24 01:52:58;;;;;;;0.50;0.50;;;6.90;99.90;;;;;;10490543;28;20209;-75
2024/03/24 01:58:02;;;;;;;0.50;0.50;;;7.00;99.90;;;;;;10488728;28;20230;-75
2024/03/24 02:03:05;;;;;;;0.60;0.60;;;7.00;99.90;;;;;;10485704;28;20200;-75
2024/03/24 02:08:07;;;;;;;0.57;0.57;;;7.10;99.50;;;;;;10489833;28;20238;-75
2024/03/24 02:13:11;;;;;;;0.50;0.50;;;7.20;99.90;;;;;;10489811;28;20200;-75
2024/03/24 02:18:14;;;;;;;0.50;0.50;;;7.30;99.90;;;;;;10490179;28;20224;-76
2024/03/24 02:23:18;;;;;;;0.40;0.40;;;7.30;99.90;;;;;;10490591;28;20223;-75
2024/03/24 02:28:20;;;;;;;0.50;0.50;;;7.40;99.90;;;;;;10489739;28;20270;-75
2024/03/24 02:33:23;;;;;;;0.40;0.40;;;7.40;99.60;;;;;;10490268;28;20618;-75
2024/03/24 02:38:26;;;;;;;0.50;0.50;;;7.30;99.70;;;;;;10489366;28;20239;-76
2024/03/24 02:43:29;;;;;;;0.50;0.50;;;7.30;99.70;;;;;;10487276;28;20203;-75
2024/03/24 02:48:31;;;;;;;0.60;0.60;;;7.30;99.60;;;;;;10486457;28;20224;-75
2024/03/24 02:53:35;;;;;;;0.60;0.60;;;7.20;99.50;;;;;;10488560;28;20574;-76
2024/03/24 02:58:38;;;;;;;0.70;0.70;;;7.20;99.40;;;;;;10496062;28;20220;-74
2024/03/24 03:03:43;;;;;;;0.60;0.60;;;7.20;99.30;;;;;;10497391;28;20205;-75
2024/03/24 03:08:46;;;;;;;0.70;0.70;;;7.10;99.00;;;;;;10496857;28;20228;-75
2024/03/24 03:13:49;;;;;;;0.80;0.80;;;7.10;99.00;;;;;;10495171;28;20249;-76
2024/03/24 03:18:51;;;;;;;0.80;0.80;;;7.00;98.70;;;;;;10496354;28;20608;-75
2024/03/24 03:23:55;;;;;;;0.80;0.80;;;7.00;98.80;;;;;;10496704;28;20198;-75
2024/03/24 03:28:57;;;;;;;0.60;0.60;;;7.00;98.70;;;;;;10496111;28;20217;-76
2024/03/24 03:33:59;;;;;;;0.60;0.60;;;6.90;98.70;;;;;;10495873;28;20666;-75
2024/03/24 03:39:04;;;;;;;0.97;0.97;;;6.80;98.60;;;;;;10495717;28;20221;-75
2024/03/24 03:44:07;;;;;;;0.60;0.60;;;6.80;98.70;;;;;;10495764;28;20250;-75
2024/03/24 03:49:14;;;;;;;0.70;0.70;;;6.90;98.60;;;;;;10495533;28;20763;-75
2024/03/24 03:54:17;;;;;;;0.60;0.60;;;6.90;98.50;;;;;;10493611;28;20197;-75
2024/03/24 03:59:20;;;;;;;0.70;0.70;;;6.90;98.70;;;;;;10494990;28;20615;-75
2024/03/24 04:04:22;;;;;;;0.80;0.80;;;7.00;98.70;;;;;;10492440;28;20196;-76
2024/03/24 04:09:26;;;;;;;0.70;0.70;;;7.00;98.50;;;;;;10494562;28;20228;-75
2024/03/24 04:14:28;;;;;;;0.60;0.60;;;7.00;98.20;;;;;;10494507;28;20200;-75
2024/03/24 04:19:31;;;;;;;0.87;0.87;;;7.00;98.20;;;;;;10492872;28;20224;-76
2024/03/24 04:24:35;;;;;;;0.50;0.50;;;7.10;98.20;;;;;;10494133;28;20238;-76
2024/03/24 04:29:37;;;;;;;0.70;0.70;;;7.10;97.80;;;;;;10493292;28;20217;-76
2024/03/24 04:34:40;;;;;;;0.60;0.60;;;7.10;98.10;;;;;;10493906;28;20720;-75
2024/03/24 04:39:43;;;;;;;0.60;0.60;;;7.20;98.30;;;;;;10493046;28;20227;-75
2024/03/24 04:44:46;;;;;;;0.73;0.73;;;7.30;97.90;;;;;;10493659;28;20242;-76
2024/03/24 04:49:48;;;;;;;0.77;0.77;;;7.30;98.00;;;;;;10492563;28;20180;-75
2024/03/24 04:54:52;;;;;;;0.70;0.70;;;7.30;98.00;;;;;;10491031;28;20246;-75
2024/03/24 04:59:54;;;;;;;0.60;0.60;;;7.30;98.10;;;;;;10492562;28;20257;-76
2024/03/24 05:04:56;;;;;;;0.80;0.80;;;7.30;98.10;;;;;;10492622;28;20200;-75
2024/03/24 05:10:00;;;;;;;0.60;0.60;;;7.30;98.10;;;;;;10492050;28;20246;-76
2024/03/24 05:15:04;;;;;;;0.77;0.77;;;7.30;97.80;;;;;;10492487;28;20232;-76
2024/03/24 05:20:09;;;;;;;0.70;0.70;;;7.30;97.40;;;;;;10491128;28;20224;-75
2024/03/24 05:25:13;;;;;;;0.70;0.70;;;7.20;97.00;;;;;;10491364;28;20232;-76
2024/03/24 05:30:15;;;;;;;0.63;0.63;;;7.10;97.10;;;;;;10491583;28;20220;-76
2024/03/24 05:35:17;;;;;;;0.70;0.70;;;7.00;96.90;;;;;;10491636;28;20212;-75
2024/03/24 05:40:22;;;;;;;0.70;0.70;;;6.90;97.00;;;;;;10490905;28;20223;-75
2024/03/24 05:45:24;;;;;;;0.70;0.70;;;7.00;97.30;;;;;;10491580;28;20250;-75
2024/03/24 05:50:26;;;;;;;0.60;0.60;;;6.90;97.10;;;;;;10490787;28;20200;-75
2024/03/24 05:55:33;;;;;;;0.60;0.60;;;6.90;97.10;;;;;;10490160;28;20225;-75
2024/03/24 06:00:35;;;;;;;0.67;0.67;;;7.00;97.70;;;;;;10491072;28;20693;-75
2024/03/24 06:05:38;;;;;;;0.77;0.77;;;7.10;97.50;;;;;;10490625;28;20547;-75
2024/03/24 06:10:44;;;;;;;0.60;0.60;;;7.10;97.40;;;;;;10490907;28;20262;-75
2024/03/24 06:15:46;;;;;;;0.60;0.60;;;7.20;97.20;;;;;;10489238;28;20216;-75
2024/03/24 06:20:48;;;;;;;0.60;0.60;;;7.30;96.90;;;;;;10490487;28;20262;-75
2024/03/24 06:25:52;;;;;;;0.70;0.70;;;7.30;96.80;;;;;;10490193;28;20262;-75
2024/03/24 06:30:55;;;;;;;0.80;0.80;;;7.40;97.10;;;;;;10497751;28;20673;-75
2024/03/24 06:35:57;;;;;;;0.70;0.70;;;7.50;96.40;;;;;;10498448;28;20538;-75
2024/03/24 06:41:01;;;;;;;0.70;0.70;;;7.40;96.50;;;;;;10498265;28;20223;-75
2024/03/24 06:46:04;;;;;;;0.60;0.60;;;7.30;96.30;;;;;;10497698;28;20220;-75
2024/03/24 06:51:06;;;;;;;0.70;0.70;;;7.30;96.80;;;;;;10497995;28;20628;-75
2024/03/24 06:56:10;;;;;;;0.60;0.60;;;7.50;96.80;;;;;;10496366;28;20582;-76
2024/03/24 07:01:12;;;;;;;0.80;0.80;;;7.70;96.60;;;;;;10497911;28;20220;-76
2024/03/24 07:06:15;;;;;;;0.80;0.80;;;7.90;96.50;;;;;;10497088;28;20216;-76
2024/03/24 07:11:18;;;;;;;0.60;0.60;;;8.10;96.40;;;;;;10497217;28;20661;-75
2024/03/24 07:16:21;;;;;;;0.70;0.70;;;8.30;94.20;;;;;;10496272;28;20209;-76
2024/03/24 07:21:23;;;;;;;0.70;0.70;;;8.40;94.20;;;;;;10496380;28;20578;-76
2024/03/24 07:26:27;;;;;;;0.60;0.60;;;8.50;94.00;;;;;;10496536;28;20220;-75
2024/03/24 07:31:30;;;;;;;0.60;0.60;;;8.40;93.70;;;;;;10496192;28;20185;-76
2024/03/24 07:36:33;;;;;;;0.70;0.70;;;8.50;93.10;;;;;;10496285;28;20733;-75
2024/03/24 07:41:36;;;;;;;0.70;0.70;;;8.50;93.20;;;;;;10495671;28;20217;-75
2024/03/24 07:46:40;;;;;;;0.80;0.80;;;8.40;93.20;;;;;;10495582;28;20220;-76
2024/03/24 07:51:42;;;;;;;0.60;0.60;;;8.30;93.20;;;;;;10495703;28;20242;-76
2024/03/24 07:56:46;;;;;;;0.70;0.70;;;8.20;92.90;;;;;;10494100;28;20270;-75
2024/03/24 08:01:48;;;;;;;0.80;0.80;;;8.40;93.00;;;;;;10495341;28;20247;-76
2024/03/24 08:06:51;;;;;;;0.83;0.83;;;8.70;91.90;;;;;;10494434;28;20241;-75
2024/03/24 08:11:54;;;;;;;0.50;0.50;;;9.00;91.60;;;;;;10494103;28;20421;-76
2024/03/24 08:16:57;;;;;;;0.70;0.70;;;9.20;92.20;;;;;;10494488;28;20224;-75
2024/03/24 08:22:00;;;;;;;0.70;0.70;;;9.40;91.90;;;;;;10494432;28;20299;-75
2024/03/24 08:27:09;;;;;;;0.70;0.70;;;9.50;92.10;;;;;;10493704;28;20220;-74
2024/03/24 08:32:13;;;;;;;0.40;0.40;;;9.70;91.60;;;;;;10488081;28;20197;-75
2024/03/24 08:37:15;;;;;;;0.50;0.50;;;10.00;90.60;;;;;;10491957;28;20213;-74
2024/03/24 08:42:21;;;;;;;0.47;0.47;;;10.30;90.80;;;;;;10493617;28;20717;-75
2024/03/24 08:47:24;;;;;;;0.50;0.50;;;10.60;90.90;;;;;;10493064;28;20277;-76
2024/03/24 08:52:26;;;;;;;0.60;0.60;;;11.00;90.30;;;;;;10492589;28;20674;-76
2024/03/24 08:57:30;;;;;;;0.50;0.50;;;11.20;89.70;;;;;;10491706;28;20223;-77
2024/03/24 09:02:32;;;;;;;0.50;0.50;;;11.30;87.70;;;;;;10493017;28;20613;-76
2024/03/24 09:07:34;;;;;;;0.60;0.60;;;11.30;88.20;;;;;;10492098;28;20232;-76
2024/03/24 09:12:38;;;;;;;0.50;0.50;;;11.30;86.50;;;;;;10491401;28;20269;-76
2024/03/24 09:17:41;;;;;;;0.40;0.40;;;11.10;84.20;;;;;;10491909;28;20205;-76
2024/03/24 09:22:44;;;;;;;0.40;0.40;;;10.80;83.20;;;;;;10491038;28;20228;-76
2024/03/24 09:27:49;;;;;;;0.40;0.40;;;10.60;84.30;;;;;;10491589;28;20269;-77
2024/03/24 09:32:52;;;;;;;0.40;0.40;;;10.40;85.50;;;;;;10491587;28;20181;-76
2024/03/24 09:37:54;;;;;;;0.40;0.40;;;10.40;85.50;;;;;;10491415;28;20690;-77
2024/03/24 09:42:58;;;;;;;0.60;0.60;;;10.50;85.90;;;;;;10491100;28;20224;-76
2024/03/24 09:48:02;;;;;;;0.40;0.40;;;10.50;87.00;;;;;;10490854;28;20223;-76
2024/03/24 09:53:05;;;;;;;0.50;0.50;;;10.50;85.60;;;;;;10489095;28;20226;-76
2024/03/24 09:58:09;;;;;;;0.40;0.40;;;10.50;86.40;;;;;;10490789;28;20224;-76
2024/03/24 10:03:12;;;;;;;0.40;0.40;;;10.50;84.70;;;;;;10489847;28;20216;-76
2024/03/24 10:08:15;;;;;;;0.50;0.50;;;10.50;85.40;;;;;;10490063;28;20232;-76
2024/03/24 10:13:19;;;;;;;0.50;0.50;;;10.50;84.90;;;;;;10489162;28;20199;-76
2024/03/24 10:18:24;;;;;;;0.60;0.60;;;10.60;85.10;;;;;;10485676;28;20212;-76
2024/03/24 10:23:30;;;;;;;0.43;0.43;;;10.60;85.30;;;;;;10449118;28;20209;-77
2024/03/24 10:28:34;;;;;;;0.60;0.60;;;10.60;84.90;;;;;;10453794;28;20588;-76
2024/03/24 10:33:38;;;;;;;0.40;0.40;;;10.60;86.40;;;;;;10482116;28;20196;-76
2024/03/24 10:38:41;;;;;;;0.60;0.60;;;10.70;84.20;;;;;;10487689;28;20223;-76
2024/03/24 10:43:47;;;;;;;0.40;0.40;;;10.70;84.40;;;;;;10488364;28;20220;-76
2024/03/24 10:48:52;;;;;;;0.60;0.60;;;10.80;85.10;;;;;;10486662;28;20643;-77
2024/03/24 10:53:54;;;;;;;0.50;0.50;;;10.90;84.30;;;;;;10486968;28;20189;-76
2024/03/24 10:58:59;;;;;;;0.50;0.50;;;11.00;86.20;;;;;;10487651;28;20228;-76
2024/03/24 11:04:03;;;;;;;0.50;0.50;;;11.10;85.20;;;;;;10487651;28;20235;-77
2024/03/24 11:09:06;;;;;;;0.60;0.60;;;11.30;85.70;;;;;;10487109;28;20273;-76
2024/03/24 11:14:12;;;;;;;0.70;0.70;;;11.50;84.00;;;;;;10490927;28;20258;-77
2024/03/24 11:19:16;;;;;;;0.50;0.50;;;11.50;83.20;;;;;;10477677;28;20216;-78
2024/03/24 11:24:26;;;;;;;0.50;0.50;;;11.50;83.90;;;;;;10494875;28;20342;-78
2024/03/24 11:29:55;;;;;;;0.50;0.50;;;11.50;84.10;;;;;;10494730;28;20208;-78
2024/03/24 11:34:57;;;;;;;0.60;0.60;;;11.40;84.80;;;;;;10494969;28;20650;-76
2024/03/24 11:40:00;;;;;;;0.53;0.53;;;11.30;85.50;;;;;;10495170;28;20204;-78
2024/03/24 11:45:23;;;;;;;0.50;0.50;;;11.10;86.80;;;;;;10486918;28;20229;-76
2024/03/24 11:50:25;;;;;;;0.50;0.50;;;11.00;87.90;;;;;;10487876;28;20214;-77
2024/03/24 11:55:28;;;;;;;0.60;0.60;;;10.90;89.00;;;;;;10491220;28;20266;-78
2024/03/24 12:00:33;;;;;;;0.50;0.50;;;11.00;86.60;;;;;;10493959;28;20201;-77
2024/03/24 12:05:36;;;;;;;0.50;0.50;;;11.10;86.50;;;;;;10493001;28;20228;-76
2024/03/24 12:10:38;;;;;;;0.50;0.50;;;11.30;84.30;;;;;;10493269;28;20736;-77
2024/03/24 12:15:44;;;;;;;0.57;0.57;;;11.30;86.20;;;;;;10493128;28;20223;-77
2024/03/24 12:20:46;;;;;;;0.70;0.70;;;11.30;87.00;;;;;;10493659;28;20204;-79
2024/03/24 12:25:49;;;;;;;0.57;0.57;;;11.10;88.10;;;;;;10484166;28;20228;-80
2024/03/24 12:30:55;;;;;;;0.50;0.50;;;11.00;86.10;;;;;;10492179;28;20262;-77
2024/03/24 12:35:57;;;;;;;0.40;0.40;;;10.60;89.00;;;;;;10491723;28;20220;-77
2024/03/24 12:40:59;;;;;;;0.50;0.50;;;10.40;90.50;;;;;;10491964;28;20609;-77
2024/03/24 12:46:03;;;;;;;0.50;0.50;;;10.30;90.10;;;;;;10490351;28;20228;-77
2024/03/24 12:51:08;;;;;;;0.50;0.50;;;10.30;89.60;;;;;;10491150;28;20201;-78
2024/03/24 12:56:12;;;;;;;0.40;0.40;;;10.30;88.30;;;;;;10489835;28;20239;-77
2024/03/24 13:01:18;;;;;;;0.30;0.30;;;10.40;88.50;;;;;;10475598;28;20196;-78
2024/03/24 13:06:21;;;;;;;0.40;0.40;;;10.40;87.40;;;;;;10490344;28;20745;-77
2024/03/24 13:11:24;;;;;;;0.60;0.60;;;10.10;91.70;;;;;;10490682;28;20204;-77
2024/03/24 13:16:32;;;;;;;0.80;0.80;;;9.70;94.10;;;;;;10489940;28;20224;-77
2024/03/24 13:21:40;;;;;;;0.63;0.63;;;9.50;95.40;;;;;;10489529;28;20217;-77
2024/03/24 13:26:47;;;;;;;0.60;0.60;;;9.50;96.40;;;;;;10487260;28;20238;-80
2024/03/24 13:31:50;;;;;;;0.60;0.60;;;9.50;95.90;;;;;;10491808;28;20197;-79
2024/03/24 13:37:04;;;;;;;0.70;0.70;;;9.50;95.60;;;;;;10490246;28;20224;-77
2024/03/24 13:42:20;;;;;;;0.60;0.60;;;9.60;95.80;;;;;;10487174;28;20213;-78
2024/03/24 13:47:30;;;;;;;0.70;0.70;;;9.60;96.20;;;;;;10489678;28;20281;-77
2024/03/24 13:52:34;;;;;;;0.60;0.60;;;9.40;95.60;;;;;;10486970;28;20196;-77
2024/03/24 13:57:36;;;;;;;0.60;0.60;;;9.20;96.10;;;;;;10486991;28;20257;-76
2024/03/24 14:02:40;;;;;;;0.60;0.60;;;9.00;96.20;;;;;;10489068;28;20266;-76
2024/03/24 14:07:42;;;;;;;0.60;0.60;;;9.00;97.10;;;;;;10490985;28;20224;-76
2024/03/24 14:12:57;;;;;;;0.60;0.60;;;9.10;97.00;;;;;;10491548;28;20608;-76
2024/03/24 14:18:10;;;;;;;0.50;0.50;;;9.30;96.40;;;;;;10491036;28;20689;-79
2024/03/24 14:23:21;;;;;;;0.63;0.63;;;9.50;95.50;;;;;;10491045;28;20220;-78
2024/03/24 14:28:24;;;;;;;0.60;0.60;;;9.50;95.80;;;;;;10490899;28;20221;-78
2024/03/24 14:33:28;;;;;;;0.70;0.70;;;9.60;95.50;;;;;;10490246;28;20196;-78
2024/03/24 14:38:51;;;;;;;0.80;0.80;;;9.70;95.60;;;;;;10489968;28;20220;-78
2024/03/24 14:44:16;;;;;;;0.60;0.60;;;9.70;94.50;;;;;;10464358;28;20254;-77
2024/03/24 14:49:20;;;;;;;0.73;0.73;;;9.90;95.10;;;;;;10492733;28;20220;-80
2024/03/24 14:54:22;;;;;;;0.53;0.53;;;10.10;94.50;;;;;;10498014;28;20196;-79
2024/03/24 14:59:24;;;;;;;0.70;0.70;;;10.30;93.10;;;;;;10496235;28;20208;-78
2024/03/24 15:04:28;;;;;;;0.70;0.70;;;10.40;92.90;;;;;;10497299;28;20708;-77
2024/03/24 15:09:30;;;;;;;0.60;0.60;;;10.40;92.60;;;;;;10496980;28;20861;-80
2024/03/24 15:14:33;;;;;;;0.60;0.60;;;10.30;93.20;;;;;;10496623;28;20215;-78
2024/03/24 15:19:37;;;;;;;0.80;0.80;;;10.40;94.20;;;;;;10487065;28;20232;-77
2024/03/24 15:24:39;;;;;;;0.70;0.70;;;10.50;92.90;;;;;;10485680;28;20270;-78
2024/03/24 15:29:41;;;;;;;0.80;0.80;;;10.50;92.70;;;;;;10491822;28;20228;-77
2024/03/24 15:34:45;;;;;;;0.60;0.60;;;10.40;92.60;;;;;;10489635;28;20204;-76
2024/03/24 15:39:48;;;;;;;0.57;0.57;;;10.30;92.30;;;;;;10492624;28;20949;-75
2024/03/24 15:44:50;;;;;;;0.80;0.80;;;10.20;92.60;;;;;;10490330;28;20228;-77
2024/03/24 15:49:54;;;;;;;0.80;0.80;;;10.10;92.40;;;;;;10494693;28;20205;-77
2024/03/24 15:54:56;;;;;;;0.70;0.70;;;9.90;92.80;;;;;;10492703;28;20663;-77
2024/03/24 16:00:03;;;;;;;0.70;0.70;;;9.80;93.30;;;;;;10493980;28;20223;-77
2024/03/24 16:05:09;;;;;;;0.80;0.80;;;9.60;93.50;;;;;;10492301;28;20266;-78
2024/03/24 16:10:46;;;;;;;0.60;0.60;;;9.50;93.40;;;;;;10493158;28;20204;-78
2024/03/24 16:15:49;;;;;;;0.80;0.80;;;9.40;93.70;;;;;;10491323;28;20220;-77
2024/03/24 16:21:03;;;;;;;0.70;0.70;;;9.40;94.00;;;;;;10493768;28;20670;-79
2024/03/24 16:26:06;;;;;;;0.80;0.80;;;9.40;94.50;;;;;;10484638;28;20221;-79
2024/03/24 16:31:09;;;;;;;0.80;0.80;;;9.50;94.20;;;;;;10492813;28;20188;-77
2024/03/24 16:36:13;;;;;;;0.73;0.73;;;9.60;93.90;;;;;;10491876;28;20266;-77
2024/03/24 16:41:15;;;;;;;0.60;0.60;;;9.70;93.70;;;;;;10494066;28;20261;-76
2024/03/24 16:46:18;;;;;;;0.73;0.73;;;9.70;93.10;;;;;;10493007;28;20700;-78
2024/03/24 16:51:22;;;;;;;0.67;0.67;;;9.80;92.30;;;;;;10494005;28;20205;-76
2024/03/24 16:56:24;;;;;;;0.77;0.77;;;9.80;92.40;;;;;;10492790;28;20563;-75
2024/03/24 17:01:28;;;;;;;0.70;0.70;;;9.70;92.20;;;;;;10492910;28;20735;-78
2024/03/24 17:06:32;;;;;;;0.60;0.60;;;9.50;92.80;;;;;;10492426;28;20266;-75
2024/03/24 17:11:35;;;;;;;0.60;0.60;;;9.50;93.00;;;;;;10492248;28;20200;-76
2024/03/24 17:16:37;;;;;;;0.70;0.70;;;9.50;93.30;;;;;;10491025;28;20212;-76
2024/03/24 17:21:41;;;;;;;0.60;0.60;;;9.50;92.80;;;;;;10492413;28;20641;-75
2024/03/24 17:26:43;;;;;;;0.60;0.60;;;9.50;93.40;;;;;;10491631;28;20232;-76
2024/03/24 17:31:46;;;;;;;0.80;0.80;;;9.30;94.30;;;;;;10491975;28;20262;-79
2024/03/24 17:36:50;;;;;;;0.70;0.70;;;9.20;95.40;;;;;;10487194;28;20290;-78
2024/03/24 17:41:52;;;;;;;0.87;0.87;;;9.10;95.90;;;;;;10489835;28;20201;-79
2024/03/24 17:46:54;;;;;;;0.70;0.70;;;9.00;96.50;;;;;;10491130;28;20713;-77
2024/03/24 17:51:58;;;;;;;0.70;0.70;;;9.00;97.10;;;;;;10491888;28;20205;-76
2024/03/24 17:57:01;;;;;;;1.00;1.00;;;8.90;96.90;;;;;;10489838;28;20204;-77
2024/03/24 18:02:05;;;;;;;0.80;0.80;;;8.80;96.50;;;;;;10488460;28;20201;-76
2024/03/24 18:12:29;;;;;;;0.60;0.60;;;8.60;96.20;;;;;;10487394;28;20196;-76
2024/03/24 18:17:32;;;;;;;0.60;0.60;;;8.60;96.10;;;;;;10489033;28;20230;-78
2024/03/24 18:22:35;;;;;;;0.80;0.80;;;8.50;95.70;;;;;;10485981;28;20201;-76
2024/03/24 18:27:38;;;;;;;0.60;0.60;;;8.40;95.80;;;;;;10495710;28;20693;-75
2024/03/24 18:32:41;;;;;;;0.50;0.50;;;8.40;95.70;;;;;;10490420;28;20218;-80
2024/03/24 18:37:45;;;;;;;0.60;0.60;;;8.30;95.80;;;;;;10490193;28;20213;-76
2024/03/24 18:42:48;;;;;;;0.57;0.57;;;8.30;95.80;;;;;;10474470;28;20232;-76
2024/03/24 18:47:50;;;;;;;0.60;0.60;;;8.30;96.00;;;;;;10490655;28;20228;-77
2024/03/24 18:52:55;;;;;;;0.50;0.50;;;8.40;95.80;;;;;;10490363;28;20212;-76
2024/03/24 18:57:57;;;;;;;0.50;0.50;;;8.40;95.30;;;;;;10489590;28;20257;-75
2024/03/24 19:03:01;;;;;;;0.40;0.40;;;8.40;95.20;;;;;;10488889;28;20212;-76
2024/03/24 19:08:06;;;;;;;0.60;0.60;;;8.40;95.30;;;;;;10487340;28;20274;-76
2024/03/24 19:13:08;;;;;;;0.60;0.60;;;8.40;95.50;;;;;;10492061;28;20196;-74
2024/03/24 19:18:10;;;;;;;0.80;0.80;;;8.30;95.70;;;;;;10491846;28;20273;-76
2024/03/24 19:23:14;;;;;;;1.00;1.00;;;8.00;96.30;;;;;;10490975;28;20269;-75
2024/03/24 19:28:17;;;;;;;1.00;1.00;;;7.90;97.70;;;;;;10484397;28;20224;-76
2024/03/24 19:33:19;;;;;;;1.20;1.20;;;7.80;98.30;;;;;;10490680;28;20185;-79
2024/03/24 19:38:23;;;;;;;2.23;2.23;;;7.70;98.70;;;;;;10489484;28;20224;-76
2024/03/24 19:43:25;;;;;;;2.90;2.90;;;7.70;99.60;;;;;;10489916;28;20204;-78
2024/03/24 19:48:28;;;;;;;2.80;2.80;;;7.60;99.90;;;;;;10473079;28;20223;-76
2024/03/24 19:53:32;;;;;;;3.20;3.20;;;7.40;99.90;;;;;;10484097;28;20586;-75
2024/03/24 19:58:34;;;;;;;2.80;2.80;;;7.10;99.80;;;;;;10487956;28;20224;-76
2024/03/24 20:03:36;;;;;;;3.03;3.03;;;7.00;99.90;;;;;;10473817;28;20266;-76
2024/03/24 20:08:40;;;;;;;2.73;2.73;;;6.80;99.90;;;;;;10471565;28;20647;-78
2024/03/24 20:13:42;;;;;;;2.80;2.80;;;6.80;99.90;;;;;;10488507;28;20780;-75
2024/03/24 20:18:45;;;;;;;2.60;2.60;;;6.80;99.90;;;;;;10487681;28;20216;-77
2024/03/24 20:23:48;;;;;;;2.70;2.70;;;6.80;99.90;;;;;;10487383;28;20228;-77
2024/03/24 20:28:52;;;;;;;1.80;1.80;;;6.80;99.90;;;;;;10477825;28;20232;-76
2024/03/24 20:33:55;;;;;;;1.87;1.87;;;6.80;99.90;;;;;;10481194;28;20215;-76
2024/03/24 20:38:59;;;;;;;2.00;2.00;;;6.70;99.90;;;;;;10480156;28;20281;-77
2024/03/24 20:44:02;;;;;;;1.50;1.50;;;6.70;99.90;;;;;;10471205;28;20212;-75
2024/03/24 20:49:05;;;;;;;1.60;1.60;;;6.80;99.90;;;;;;10485798;28;20220;-77
2024/03/24 20:54:09;;;;;;;1.70;1.70;;;6.80;99.90;;;;;;10476823;28;20221;-77
2024/03/24 20:59:11;;;;;;;1.20;1.20;;;6.90;99.90;;;;;;10477354;28;20216;-77
2024/03/24 21:04:14;;;;;;;0.90;0.90;;;7.00;99.90;;;;;;10489139;28;20217;-78
2024/03/24 21:09:18;;;;;;;1.20;1.20;;;7.00;99.90;;;;;;10489212;28;20614;-76
2024/03/24 21:14:21;;;;;;;1.03;1.03;;;7.10;99.90;;;;;;10482266;28;20610;-81
2024/03/24 21:19:23;;;;;;;0.77;0.77;;;7.10;99.90;;;;;;10464630;28;20216;-76
2024/03/24 21:24:30;;;;;;;1.13;1.13;;;7.20;99.90;;;;;;10490139;28;20220;-76
2024/03/24 21:29:32;;;;;;;0.83;0.83;;;7.20;99.90;;;;;;10489808;28;20212;-76
2024/03/24 21:34:36;;;;;;;0.70;0.70;;;7.20;99.90;;;;;;10488669;28;20196;-74
2024/03/24 21:45:00;;;;;;;0.83;0.83;;;7.40;99.90;;;;;;10466593;28;20326;-76
2024/03/24 21:50:02;;;;;;;0.80;0.80;;;7.40;99.90;;;;;;10478973;28;20238;-76
2024/03/24 21:55:07;;;;;;;0.90;0.90;;;7.40;99.90;;;;;;10486917;28;20637;-76
2024/03/24 22:00:10;;;;;;;0.57;0.57;;;7.40;99.90;;;;;;10475802;28;20732;-76
2024/03/24 22:05:13;;;;;;;0.50;0.50;;;7.40;99.90;;;;;;10479277;28;20237;-76
2024/03/24 22:10:17;;;;;;;0.80;0.80;;;7.40;99.90;;;;;;10484983;28;20661;-78
2024/03/24 22:15:19;;;;;;;0.70;0.70;;;7.50;99.50;;;;;;10471956;28;20220;-81
2024/03/24 22:20:21;;;;;;;0.80;0.80;;;7.50;99.70;;;;;;10488752;28;20203;-79
2024/03/24 22:25:26;;;;;;;0.70;0.70;;;7.50;99.70;;;;;;10488774;28;20297;-77
2024/03/24 22:30:28;;;;;;;0.70;0.70;;;7.50;99.10;;;;;;10471312;28;20188;-76
2024/03/24 22:35:34;;;;;;;0.60;0.60;;;7.50;99.40;;;;;;10487635;28;20224;-80
2024/03/24 22:40:37;;;;;;;0.50;0.50;;;7.60;99.80;;;;;;10471761;28;20266;-76
2024/03/24 22:45:40;;;;;;;0.70;0.70;;;7.60;99.70;;;;;;10486249;28;20216;-77
2024/03/24 22:50:42;;;;;;;0.60;0.60;;;7.60;99.00;;;;;;10487908;28;20751;-77
2024/03/24 22:55:46;;;;;;;0.53;0.53;;;7.60;99.30;;;;;;10486582;28;20610;-77
2024/03/24 23:00:50;;;;;;;0.60;0.60;;;7.70;99.20;;;;;;10478402;28;20196;-76
2024/03/24 23:05:53;;;;;;;0.50;0.50;;;7.70;99.20;;;;;;10485496;28;20224;-77
2024/03/24 23:10:56;;;;;;;0.80;0.80;;;7.70;99.20;;;;;;10489613;28;20224;-77
2024/03/24 23:16:00;;;;;;;0.70;0.70;;;7.70;99.00;;;;;;10495067;28;20224;-76
2024/03/24 23:21:02;;;;;;;0.50;0.50;;;7.80;99.20;;;;;;10494125;28;20215;-76
2024/03/24 23:26:06;;;;;;;0.50;0.50;;;7.70;98.90;;;;;;10494270;28;20228;-76
2024/03/24 23:31:08;;;;;;;0.70;0.70;;;7.80;98.90;;;;;;10494872;28;20197;-75
2024/03/24 23:36:11;;;;;;;0.60;0.60;;;7.80;98.50;;;;;;10492855;28;20267;-75
2024/03/24 23:41:15;;;;;;;0.50;0.50;;;7.70;98.60;;;;;;10495195;28;20285;-76
2024/03/24 23:46:19;;;;;;;0.90;0.90;;;7.80;98.40;;;;;;10494207;28;20289;-76
2024/03/24 23:51:21;;;;;;;0.70;0.70;;;7.80;98.40;;;;;;10495741;28;20693;-76
2024/03/24 23:56:25;;;;;;;0.60;0.60;;;7.80;98.60;;;;;;10493975;28;20255;-76
